sensor_id;sensor_type;location;lat;lon;timestamp;pressure;altitude;pressure_sealevel;temperature;humidity
34034;BME280;63481;52.588;22.472;2023-03-20T00:00:08;100236.33;;;3.71;79.36
34034;BME280;63481;52.588;22.472;2023-03-20T00:01:29;100239.29;;;3.65;79.99
34034;BME280;63481;52.588;22.472;2023-03-20T00:02:23;100238.16;;;3.60;79.98
34034;BME280;63481;52.588;22.472;2023-03-20T00:03:16;100241.13;;;3.57;79.91
34034;BME280;63481;52.588;22.472;2023-03-20T00:04:09;100234.69;;;3.55;80.07
34034;BME280;63481;52.588;22.472;2023-03-20T00:05:17;100237.35;;;3.51;80.41
34034;BME280;63481;52.588;22.472;2023-03-20T00:07:11;100233.89;;;3.46;80.08
34034;BME280;63481;52.588;22.472;2023-03-20T00:08:04;100235.09;;;3.43;80.42
34034;BME280;63481;52.588;22.472;2023-03-20T00:08:57;100230.25;;;3.47;80.68
34034;BME280;63481;52.588;22.472;2023-03-20T00:09:49;100234.19;;;3.50;80.51
34034;BME280;63481;52.588;22.472;2023-03-20T00:10:44;100230.07;;;3.52;80.42
34034;BME280;63481;52.588;22.472;2023-03-20T00:11:46;100233.52;;;3.58;80.72
34034;BME280;63481;52.588;22.472;2023-03-20T00:12:39;100231.70;;;3.62;80.59
34034;BME280;63481;52.588;22.472;2023-03-20T00:13:32;100231.68;;;3.64;80.21
34034;BME280;63481;52.588;22.472;2023-03-20T00:14:25;100229.23;;;3.65;80.33
34034;BME280;63481;52.588;22.472;2023-03-20T00:15:27;100228.77;;;3.63;80.13
34034;BME280;63481;52.588;22.472;2023-03-20T00:16:22;100228.77;;;3.61;80.01
34034;BME280;63481;52.588;22.472;2023-03-20T00:17:18;100227.39;;;3.63;79.99
34034;BME280;63481;52.588;22.472;2023-03-20T00:18:18;100226.66;;;3.61;79.96
34034;BME280;63481;52.588;22.472;2023-03-20T00:19:23;100227.63;;;3.60;79.85
34034;BME280;63481;52.588;22.472;2023-03-20T00:20:17;100228.35;;;3.64;80.06
34034;BME280;63481;52.588;22.472;2023-03-20T00:21:17;100225.11;;;3.68;80.23
34034;BME280;63481;52.588;22.472;2023-03-20T00:22:10;100228.73;;;3.73;79.70
34034;BME280;63481;52.588;22.472;2023-03-20T00:23:02;100224.86;;;3.76;79.23
34034;BME280;63481;52.588;22.472;2023-03-20T00:23:56;100227.33;;;3.73;79.30
34034;BME280;63481;52.588;22.472;2023-03-20T00:24:48;100222.18;;;3.69;79.24
34034;BME280;63481;52.588;22.472;2023-03-20T00:25:42;100222.23;;;3.65;79.54
34034;BME280;63481;52.588;22.472;2023-03-20T00:26:35;100223.48;;;3.59;79.29
34034;BME280;63481;52.588;22.472;2023-03-20T00:27:29;100223.84;;;3.54;79.80
34034;BME280;63481;52.588;22.472;2023-03-20T00:28:30;100222.00;;;3.50;79.94
34034;BME280;63481;52.588;22.472;2023-03-20T00:29:29;100220.66;;;3.45;79.85
34034;BME280;63481;52.588;22.472;2023-03-20T00:30:26;100222.63;;;3.43;80.08
34034;BME280;63481;52.588;22.472;2023-03-20T00:31:24;100219.02;;;3.40;80.47
34034;BME280;63481;52.588;22.472;2023-03-20T00:32:18;100220.43;;;3.40;80.58
34034;BME280;63481;52.588;22.472;2023-03-20T00:33:10;100218.64;;;3.41;80.57
34034;BME280;63481;52.588;22.472;2023-03-20T00:34:05;100219.78;;;3.40;80.42
34034;BME280;63481;52.588;22.472;2023-03-20T00:34:59;100219.03;;;3.39;80.94
34034;BME280;63481;52.588;22.472;2023-03-20T00:35:51;100216.29;;;3.40;81.02
34034;BME280;63481;52.588;22.472;2023-03-20T00:36:44;100218.17;;;3.37;80.76
34034;BME280;63481;52.588;22.472;2023-03-20T00:37:36;100216.18;;;3.34;80.73
34034;BME280;63481;52.588;22.472;2023-03-20T00:38:29;100214.73;;;3.33;80.84
34034;BME280;63481;52.588;22.472;2023-03-20T00:39:22;100212.55;;;3.34;80.84
34034;BME280;63481;52.588;22.472;2023-03-20T00:40:15;100212.00;;;3.30;80.71
34034;BME280;63481;52.588;22.472;2023-03-20T00:42:29;100208.83;;;3.21;81.04
34034;BME280;63481;52.588;22.472;2023-03-20T00:43:22;100207.40;;;3.17;81.27
34034;BME280;63481;52.588;22.472;2023-03-20T00:45:28;100205.17;;;3.10;81.42
34034;BME280;63481;52.588;22.472;2023-03-20T00:46:21;100209.48;;;3.08;81.82
34034;BME280;63481;52.588;22.472;2023-03-20T00:47:22;100205.61;;;3.05;82.13
34034;BME280;63481;52.588;22.472;2023-03-20T00:48:15;100210.27;;;3.00;81.77
34034;BME280;63481;52.588;22.472;2023-03-20T00:49:10;100206.81;;;2.96;82.08
34034;BME280;63481;52.588;22.472;2023-03-20T00:50:15;100204.98;;;2.89;82.72
34034;BME280;63481;52.588;22.472;2023-03-20T00:51:09;100206.44;;;2.81;82.47
34034;BME280;63481;52.588;22.472;2023-03-20T00:52:03;100207.86;;;2.75;82.59
34034;BME280;63481;52.588;22.472;2023-03-20T00:52:57;100206.43;;;2.68;83.21
34034;BME280;63481;52.588;22.472;2023-03-20T00:53:50;100205.25;;;2.61;83.76
34034;BME280;63481;52.588;22.472;2023-03-20T00:54:42;100206.88;;;2.59;83.69
34034;BME280;63481;52.588;22.472;2023-03-20T00:55:35;100208.10;;;2.59;83.78
34034;BME280;63481;52.588;22.472;2023-03-20T00:56:34;100207.34;;;2.56;83.74
34034;BME280;63481;52.588;22.472;2023-03-20T00:59:00;100205.26;;;2.52;83.81
34034;BME280;63481;52.588;22.472;2023-03-20T00:59:57;100207.81;;;2.55;84.11
34034;BME280;63481;52.588;22.472;2023-03-20T01:00:51;100205.59;;;2.53;84.00
34034;BME280;63481;52.588;22.472;2023-03-20T01:01:45;100204.99;;;2.51;83.89
34034;BME280;63481;52.588;22.472;2023-03-20T01:02:38;100207.23;;;2.54;84.28
34034;BME280;63481;52.588;22.472;2023-03-20T01:03:30;100204.09;;;2.55;84.47
34034;BME280;63481;52.588;22.472;2023-03-20T01:04:23;100206.73;;;2.55;84.31
34034;BME280;63481;52.588;22.472;2023-03-20T01:05:20;100203.40;;;2.57;84.13
34034;BME280;63481;52.588;22.472;2023-03-20T01:06:12;100198.66;;;2.55;84.27
34034;BME280;63481;52.588;22.472;2023-03-20T01:07:07;100200.96;;;2.55;84.49
34034;BME280;63481;52.588;22.472;2023-03-20T01:08:02;100198.12;;;2.52;84.55
34034;BME280;63481;52.588;22.472;2023-03-20T01:08:54;100198.73;;;2.51;84.28
34034;BME280;63481;52.588;22.472;2023-03-20T01:09:51;100197.02;;;2.49;84.49
34034;BME280;63481;52.588;22.472;2023-03-20T01:10:45;100194.94;;;2.45;84.25
34034;BME280;63481;52.588;22.472;2023-03-20T01:11:40;100195.52;;;2.43;84.55
34034;BME280;63481;52.588;22.472;2023-03-20T01:12:34;100197.42;;;2.45;84.53
34034;BME280;63481;52.588;22.472;2023-03-20T01:13:29;100192.69;;;2.45;84.39
34034;BME280;63481;52.588;22.472;2023-03-20T01:14:22;100193.95;;;2.43;84.16
34034;BME280;63481;52.588;22.472;2023-03-20T01:15:21;100195.46;;;2.42;84.59
34034;BME280;63481;52.588;22.472;2023-03-20T01:16:23;100192.13;;;2.40;84.39
34034;BME280;63481;52.588;22.472;2023-03-20T01:17:18;100191.77;;;2.40;84.41
34034;BME280;63481;52.588;22.472;2023-03-20T01:18:13;100190.34;;;2.38;84.32
34034;BME280;63481;52.588;22.472;2023-03-20T01:19:06;100189.73;;;2.36;84.50
34034;BME280;63481;52.588;22.472;2023-03-20T01:19:59;100192.45;;;2.35;84.71
34034;BME280;63481;52.588;22.472;2023-03-20T01:20:52;100189.52;;;2.31;84.72
34034;BME280;63481;52.588;22.472;2023-03-20T01:21:44;100191.09;;;2.28;84.71
34034;BME280;63481;52.588;22.472;2023-03-20T01:22:37;100192.37;;;2.25;84.56
34034;BME280;63481;52.588;22.472;2023-03-20T01:23:29;100192.80;;;2.25;84.88
34034;BME280;63481;52.588;22.472;2023-03-20T01:24:22;100193.19;;;2.23;84.59
34034;BME280;63481;52.588;22.472;2023-03-20T01:25:15;100195.20;;;2.22;84.78
34034;BME280;63481;52.588;22.472;2023-03-20T01:26:21;100195.13;;;2.22;84.84
34034;BME280;63481;52.588;22.472;2023-03-20T01:27:17;100194.72;;;2.21;84.94
34034;BME280;63481;52.588;22.472;2023-03-20T01:28:14;100197.02;;;2.21;85.19
34034;BME280;63481;52.588;22.472;2023-03-20T01:29:24;100196.89;;;2.20;85.21
34034;BME280;63481;52.588;22.472;2023-03-20T01:30:24;100196.15;;;2.20;85.09
34034;BME280;63481;52.588;22.472;2023-03-20T01:31:17;100196.24;;;2.17;85.02
34034;BME280;63481;52.588;22.472;2023-03-20T01:32:15;100195.56;;;2.16;85.05
34034;BME280;63481;52.588;22.472;2023-03-20T01:33:19;100197.95;;;2.19;85.44
34034;BME280;63481;52.588;22.472;2023-03-20T01:34:14;100192.65;;;2.21;85.72
34034;BME280;63481;52.588;22.472;2023-03-20T01:35:11;100192.99;;;2.23;85.63
34034;BME280;63481;52.588;22.472;2023-03-20T01:36:04;100193.98;;;2.23;85.89
34034;BME280;63481;52.588;22.472;2023-03-20T01:36:57;100196.39;;;2.24;86.04
34034;BME280;63481;52.588;22.472;2023-03-20T01:37:51;100194.40;;;2.26;85.86
34034;BME280;63481;52.588;22.472;2023-03-20T01:38:44;100193.52;;;2.24;85.76
34034;BME280;63481;52.588;22.472;2023-03-20T01:39:37;100193.71;;;2.21;85.97
34034;BME280;63481;52.588;22.472;2023-03-20T01:40:43;100196.58;;;2.17;85.48
34034;BME280;63481;52.588;22.472;2023-03-20T01:41:38;100195.58;;;2.11;85.58
34034;BME280;63481;52.588;22.472;2023-03-20T01:42:32;100199.14;;;2.07;85.65
34034;BME280;63481;52.588;22.472;2023-03-20T01:43:27;100196.02;;;2.03;85.83
34034;BME280;63481;52.588;22.472;2023-03-20T01:44:27;100199.27;;;2.01;85.78
34034;BME280;63481;52.588;22.472;2023-03-20T01:45:25;100195.18;;;1.96;85.81
34034;BME280;63481;52.588;22.472;2023-03-20T01:46:29;100198.04;;;1.94;86.00
34034;BME280;63481;52.588;22.472;2023-03-20T01:47:33;100198.30;;;1.93;86.15
34034;BME280;63481;52.588;22.472;2023-03-20T01:50:21;100198.35;;;1.91;86.22
34034;BME280;63481;52.588;22.472;2023-03-20T01:51:25;100197.55;;;1.88;86.41
34034;BME280;63481;52.588;22.472;2023-03-20T01:52:20;100196.01;;;1.86;86.45
34034;BME280;63481;52.588;22.472;2023-03-20T01:53:24;100194.67;;;1.85;86.32
34034;BME280;63481;52.588;22.472;2023-03-20T01:55:23;100192.02;;;1.86;86.54
34034;BME280;63481;52.588;22.472;2023-03-20T01:56:20;100192.77;;;1.87;86.40
34034;BME280;63481;52.588;22.472;2023-03-20T01:57:19;100193.74;;;1.90;86.48
34034;BME280;63481;52.588;22.472;2023-03-20T01:58:20;100195.54;;;1.93;86.57
34034;BME280;63481;52.588;22.472;2023-03-20T01:59:22;100194.52;;;1.94;86.40
34034;BME280;63481;52.588;22.472;2023-03-20T02:00:16;100199.51;;;1.95;86.50
34034;BME280;63481;52.588;22.472;2023-03-20T02:01:11;100200.85;;;1.96;86.43
34034;BME280;63481;52.588;22.472;2023-03-20T02:02:05;100197.34;;;1.94;86.15
34034;BME280;63481;52.588;22.472;2023-03-20T02:02:58;100199.54;;;1.91;86.57
34034;BME280;63481;52.588;22.472;2023-03-20T02:04:10;100198.67;;;1.89;86.43
34034;BME280;63481;52.588;22.472;2023-03-20T02:05:21;100197.25;;;1.90;86.51
34034;BME280;63481;52.588;22.472;2023-03-20T02:06:14;100199.13;;;1.93;86.69
34034;BME280;63481;52.588;22.472;2023-03-20T02:07:26;100193.96;;;1.94;86.34
34034;BME280;63481;52.588;22.472;2023-03-20T02:08:31;100196.05;;;1.91;86.25
34034;BME280;63481;52.588;22.472;2023-03-20T02:09:28;100195.60;;;1.88;86.60
34034;BME280;63481;52.588;22.472;2023-03-20T02:10:21;100196.21;;;1.88;86.64
34034;BME280;63481;52.588;22.472;2023-03-20T02:11:23;100196.98;;;1.87;86.57
34034;BME280;63481;52.588;22.472;2023-03-20T02:12:18;100194.37;;;1.87;86.69
34034;BME280;63481;52.588;22.472;2023-03-20T02:13:12;100193.06;;;1.88;86.57
34034;BME280;63481;52.588;22.472;2023-03-20T02:14:10;100191.61;;;1.90;86.83
34034;BME280;63481;52.588;22.472;2023-03-20T02:15:33;100189.81;;;1.92;86.95
34034;BME280;63481;52.588;22.472;2023-03-20T02:16:38;100186.23;;;1.93;86.76
34034;BME280;63481;52.588;22.472;2023-03-20T02:17:49;100186.47;;;1.97;86.73
34034;BME280;63481;52.588;22.472;2023-03-20T02:18:44;100186.20;;;2.02;86.46
34034;BME280;63481;52.588;22.472;2023-03-20T02:20:11;100187.91;;;2.04;86.46
34034;BME280;63481;52.588;22.472;2023-03-20T02:30:37;100180.69;;;2.07;86.39
34034;BME280;63481;52.588;22.472;2023-03-20T02:39:29;100176.05;;;1.81;87.00
34034;BME280;63481;52.588;22.472;2023-03-20T02:41:38;100172.02;;;1.75;87.25
34034;BME280;63481;52.588;22.472;2023-03-20T02:47:15;100171.31;;;1.58;87.24
34034;BME280;63481;52.588;22.472;2023-03-20T02:49:25;100170.44;;;1.52;87.64
34034;BME280;63481;52.588;22.472;2023-03-20T02:51:54;100167.15;;;1.45;87.95
34034;BME280;63481;52.588;22.472;2023-03-20T02:53:52;100162.48;;;1.39;88.10
34034;BME280;63481;52.588;22.472;2023-03-20T02:56:17;100158.11;;;1.34;88.57
34034;BME280;63481;52.588;22.472;2023-03-20T02:58:31;100157.23;;;1.25;88.22
34034;BME280;63481;52.588;22.472;2023-03-20T03:01:26;100158.98;;;1.25;88.46
34034;BME280;63481;52.588;22.472;2023-03-20T03:03:14;100157.89;;;1.27;88.38
34034;BME280;63481;52.588;22.472;2023-03-20T03:04:11;100158.45;;;1.25;88.80
34034;BME280;63481;52.588;22.472;2023-03-20T03:05:15;100160.98;;;1.28;88.80
34034;BME280;63481;52.588;22.472;2023-03-20T03:06:25;100160.48;;;1.30;88.86
34034;BME280;63481;52.588;22.472;2023-03-20T03:07:22;100156.49;;;1.31;88.89
34034;BME280;63481;52.588;22.472;2023-03-20T03:08:19;100153.42;;;1.32;89.08
34034;BME280;63481;52.588;22.472;2023-03-20T03:09:18;100155.64;;;1.36;88.94
34034;BME280;63481;52.588;22.472;2023-03-20T03:10:23;100155.36;;;1.40;89.08
34034;BME280;63481;52.588;22.472;2023-03-20T03:11:18;100150.31;;;1.45;88.90
34034;BME280;63481;52.588;22.472;2023-03-20T03:12:19;100150.85;;;1.50;89.13
34034;BME280;63481;52.588;22.472;2023-03-20T03:13:18;100153.81;;;1.52;88.93
34034;BME280;63481;52.588;22.472;2023-03-20T03:14:25;100152.23;;;1.54;88.87
34034;BME280;63481;52.588;22.472;2023-03-20T03:15:27;100150.34;;;1.56;88.56
34034;BME280;63481;52.588;22.472;2023-03-20T03:16:25;100150.06;;;1.58;88.40
34034;BME280;63481;52.588;22.472;2023-03-20T03:17:22;100151.31;;;1.61;88.17
34034;BME280;63481;52.588;22.472;2023-03-20T03:18:19;100148.14;;;1.64;88.28
34034;BME280;63481;52.588;22.472;2023-03-20T03:19:17;100150.52;;;1.68;88.25
34034;BME280;63481;52.588;22.472;2023-03-20T03:20:38;100147.08;;;1.69;88.10
34034;BME280;63481;52.588;22.472;2023-03-20T03:21:32;100151.08;;;1.73;88.04
34034;BME280;63481;52.588;22.472;2023-03-20T03:22:26;100149.64;;;1.73;87.77
34034;BME280;63481;52.588;22.472;2023-03-20T03:23:28;100149.96;;;1.73;87.88
34034;BME280;63481;52.588;22.472;2023-03-20T03:24:31;100147.63;;;1.77;87.97
34034;BME280;63481;52.588;22.472;2023-03-20T03:25:28;100145.45;;;1.76;87.92
34034;BME280;63481;52.588;22.472;2023-03-20T03:26:25;100147.98;;;1.77;87.57
34034;BME280;63481;52.588;22.472;2023-03-20T03:27:31;100143.45;;;1.77;87.64
34034;BME280;63481;52.588;22.472;2023-03-20T03:28:39;100144.08;;;1.78;87.51
34034;BME280;63481;52.588;22.472;2023-03-20T03:29:35;100142.30;;;1.76;87.33
34034;BME280;63481;52.588;22.472;2023-03-20T03:30:33;100139.32;;;1.74;87.57
34034;BME280;63481;52.588;22.472;2023-03-20T03:31:29;100142.73;;;1.74;87.52
34034;BME280;63481;52.588;22.472;2023-03-20T03:32:32;100135.60;;;1.73;87.72
34034;BME280;63481;52.588;22.472;2023-03-20T03:33:31;100137.08;;;1.72;87.60
34034;BME280;63481;52.588;22.472;2023-03-20T03:34:26;100133.98;;;1.75;87.54
34034;BME280;63481;52.588;22.472;2023-03-20T03:35:20;100135.70;;;1.74;87.55
34034;BME280;63481;52.588;22.472;2023-03-20T03:37:25;100132.92;;;1.67;87.44
34034;BME280;63481;52.588;22.472;2023-03-20T03:38:36;100133.09;;;1.67;87.54
34034;BME280;63481;52.588;22.472;2023-03-20T03:43:26;100136.17;;;1.59;87.83
34034;BME280;63481;52.588;22.472;2023-03-20T03:44:37;100134.06;;;1.57;87.88
34034;BME280;63481;52.588;22.472;2023-03-20T03:45:38;100133.31;;;1.56;88.05
34034;BME280;63481;52.588;22.472;2023-03-20T03:46:46;100132.79;;;1.58;87.99
34034;BME280;63481;52.588;22.472;2023-03-20T03:48:16;100131.26;;;1.56;88.09
34034;BME280;63481;52.588;22.472;2023-03-20T03:49:15;100127.49;;;1.51;87.89
34034;BME280;63481;52.588;22.472;2023-03-20T03:50:18;100130.23;;;1.52;87.99
34034;BME280;63481;52.588;22.472;2023-03-20T03:51:18;100126.38;;;1.50;88.09
34034;BME280;63481;52.588;22.472;2023-03-20T03:52:31;100128.46;;;1.48;88.15
34034;BME280;63481;52.588;22.472;2023-03-20T03:53:36;100130.08;;;1.47;88.27
34034;BME280;63481;52.588;22.472;2023-03-20T03:54:34;100127.44;;;1.44;88.29
34034;BME280;63481;52.588;22.472;2023-03-20T03:55:52;100125.98;;;1.42;88.26
34034;BME280;63481;52.588;22.472;2023-03-20T03:56:47;100126.15;;;1.40;88.36
34034;BME280;63481;52.588;22.472;2023-03-20T03:57:45;100123.08;;;1.37;88.51
34034;BME280;63481;52.588;22.472;2023-03-20T03:58:47;100124.25;;;1.36;88.51
34034;BME280;63481;52.588;22.472;2023-03-20T03:59:43;100127.34;;;1.40;88.51
34034;BME280;63481;52.588;22.472;2023-03-20T04:00:40;100124.56;;;1.45;88.60
34034;BME280;63481;52.588;22.472;2023-03-20T04:01:35;100125.94;;;1.51;88.73
34034;BME280;63481;52.588;22.472;2023-03-20T04:02:28;100123.49;;;1.56;88.81
34034;BME280;63481;52.588;22.472;2023-03-20T04:03:26;100123.91;;;1.55;88.79
34034;BME280;63481;52.588;22.472;2023-03-20T04:04:21;100122.85;;;1.56;88.60
34034;BME280;63481;52.588;22.472;2023-03-20T04:05:18;100123.76;;;1.55;88.50
34034;BME280;63481;52.588;22.472;2023-03-20T04:06:12;100123.71;;;1.54;88.74
34034;BME280;63481;52.588;22.472;2023-03-20T04:07:07;100123.30;;;1.51;88.63
34034;BME280;63481;52.588;22.472;2023-03-20T04:08:01;100125.13;;;1.50;88.59
34034;BME280;63481;52.588;22.472;2023-03-20T04:08:54;100126.30;;;1.47;88.75
34034;BME280;63481;52.588;22.472;2023-03-20T04:09:47;100128.08;;;1.45;88.75
34034;BME280;63481;52.588;22.472;2023-03-20T04:10:40;100129.29;;;1.44;88.84
34034;BME280;63481;52.588;22.472;2023-03-20T04:11:34;100127.37;;;1.44;88.77
34034;BME280;63481;52.588;22.472;2023-03-20T04:13:21;100131.09;;;1.45;88.95
34034;BME280;63481;52.588;22.472;2023-03-20T04:14:13;100132.77;;;1.47;89.05
34034;BME280;63481;52.588;22.472;2023-03-20T04:15:07;100133.03;;;1.48;88.99
34034;BME280;63481;52.588;22.472;2023-03-20T04:16:00;100130.77;;;1.46;88.80
34034;BME280;63481;52.588;22.472;2023-03-20T04:16:54;100131.58;;;1.44;88.73
34034;BME280;63481;52.588;22.472;2023-03-20T04:17:47;100131.27;;;1.40;88.76
34034;BME280;63481;52.588;22.472;2023-03-20T04:18:41;100128.49;;;1.38;88.91
34034;BME280;63481;52.588;22.472;2023-03-20T04:19:35;100128.20;;;1.41;88.88
34034;BME280;63481;52.588;22.472;2023-03-20T04:20:28;100125.33;;;1.43;88.93
34034;BME280;63481;52.588;22.472;2023-03-20T04:21:21;100122.35;;;1.45;89.00
34034;BME280;63481;52.588;22.472;2023-03-20T04:22:14;100121.96;;;1.45;88.96
34034;BME280;63481;52.588;22.472;2023-03-20T04:23:06;100118.03;;;1.49;88.91
34034;BME280;63481;52.588;22.472;2023-03-20T04:23:59;100118.09;;;1.52;88.91
34034;BME280;63481;52.588;22.472;2023-03-20T04:24:52;100121.23;;;1.51;88.59
34034;BME280;63481;52.588;22.472;2023-03-20T04:25:45;100116.96;;;1.46;88.82
34034;BME280;63481;52.588;22.472;2023-03-20T04:26:37;100120.09;;;1.41;88.55
34034;BME280;63481;52.588;22.472;2023-03-20T04:27:31;100115.77;;;1.37;88.70
34034;BME280;63481;52.588;22.472;2023-03-20T04:28:24;100116.92;;;1.32;88.64
34034;BME280;63481;52.588;22.472;2023-03-20T04:29:27;100118.52;;;1.29;88.76
34034;BME280;63481;52.588;22.472;2023-03-20T04:30:30;100116.89;;;1.26;88.88
34034;BME280;63481;52.588;22.472;2023-03-20T04:31:34;100118.73;;;1.25;89.02
34034;BME280;63481;52.588;22.472;2023-03-20T04:32:42;100118.19;;;1.23;89.23
34034;BME280;63481;52.588;22.472;2023-03-20T04:33:51;100119.86;;;1.20;89.09
34034;BME280;63481;52.588;22.472;2023-03-20T04:34:51;100120.23;;;1.18;89.00
34034;BME280;63481;52.588;22.472;2023-03-20T04:36:13;100123.94;;;1.18;89.30
34034;BME280;63481;52.588;22.472;2023-03-20T04:37:05;100123.72;;;1.15;89.44
34034;BME280;63481;52.588;22.472;2023-03-20T04:38:20;100120.70;;;1.19;89.35
34034;BME280;63481;52.588;22.472;2023-03-20T04:39:13;100121.80;;;1.22;89.66
34034;BME280;63481;52.588;22.472;2023-03-20T04:40:06;100124.80;;;1.18;89.45
34034;BME280;63481;52.588;22.472;2023-03-20T04:40:59;100123.90;;;1.18;89.61
34034;BME280;63481;52.588;22.472;2023-03-20T04:41:52;100126.59;;;1.17;89.45
34034;BME280;63481;52.588;22.472;2023-03-20T04:42:45;100127.16;;;1.19;89.44
34034;BME280;63481;52.588;22.472;2023-03-20T04:43:37;100128.89;;;1.19;89.65
34034;BME280;63481;52.588;22.472;2023-03-20T04:44:31;100126.93;;;1.18;89.27
34034;BME280;63481;52.588;22.472;2023-03-20T04:45:24;100125.96;;;1.13;89.36
34034;BME280;63481;52.588;22.472;2023-03-20T04:46:17;100123.88;;;1.08;89.39
34034;BME280;63481;52.588;22.472;2023-03-20T04:47:09;100122.18;;;1.06;89.33
34034;BME280;63481;52.588;22.472;2023-03-20T04:48:06;100121.63;;;1.06;89.48
34034;BME280;63481;52.588;22.472;2023-03-20T04:48:59;100122.24;;;1.05;89.72
34034;BME280;63481;52.588;22.472;2023-03-20T04:49:55;100117.83;;;1.04;89.79
34034;BME280;63481;52.588;22.472;2023-03-20T04:50:48;100121.46;;;1.02;89.81
34034;BME280;63481;52.588;22.472;2023-03-20T04:51:43;100119.59;;;1.00;89.79
34034;BME280;63481;52.588;22.472;2023-03-20T04:52:38;100122.75;;;0.98;89.97
34034;BME280;63481;52.588;22.472;2023-03-20T04:53:31;100123.55;;;0.97;89.86
34034;BME280;63481;52.588;22.472;2023-03-20T04:54:24;100126.70;;;0.95;89.94
34034;BME280;63481;52.588;22.472;2023-03-20T04:55:17;100129.67;;;0.97;90.12
34034;BME280;63481;52.588;22.472;2023-03-20T04:56:10;100128.66;;;1.06;90.11
34034;BME280;63481;52.588;22.472;2023-03-20T04:57:03;100127.06;;;1.09;90.36
34034;BME280;63481;52.588;22.472;2023-03-20T04:57:56;100128.70;;;1.14;90.49
34034;BME280;63481;52.588;22.472;2023-03-20T04:58:49;100124.92;;;1.17;90.67
34034;BME280;63481;52.588;22.472;2023-03-20T04:59:43;100126.05;;;1.18;90.69
34034;BME280;63481;52.588;22.472;2023-03-20T05:00:36;100127.15;;;1.16;90.76
34034;BME280;63481;52.588;22.472;2023-03-20T05:01:28;100126.69;;;1.13;90.72
34034;BME280;63481;52.588;22.472;2023-03-20T05:02:21;100128.16;;;1.12;90.66
34034;BME280;63481;52.588;22.472;2023-03-20T05:03:14;100130.09;;;1.11;90.62
34034;BME280;63481;52.588;22.472;2023-03-20T05:04:06;100128.62;;;1.09;90.80
34034;BME280;63481;52.588;22.472;2023-03-20T05:04:59;100130.90;;;1.09;90.55
34034;BME280;63481;52.588;22.472;2023-03-20T05:05:52;100127.89;;;1.08;90.82
34034;BME280;63481;52.588;22.472;2023-03-20T05:06:45;100128.22;;;1.08;90.72
34034;BME280;63481;52.588;22.472;2023-03-20T05:07:40;100127.33;;;1.12;91.09
34034;BME280;63481;52.588;22.472;2023-03-20T05:08:35;100123.91;;;1.13;91.42
34034;BME280;63481;52.588;22.472;2023-03-20T05:09:28;100128.69;;;1.12;91.28
34034;BME280;63481;52.588;22.472;2023-03-20T05:10:21;100128.05;;;1.12;91.18
34034;BME280;63481;52.588;22.472;2023-03-20T05:11:25;100131.28;;;1.13;91.09
34034;BME280;63481;52.588;22.472;2023-03-20T05:12:30;100132.59;;;1.15;91.38
34034;BME280;63481;52.588;22.472;2023-03-20T05:13:35;100130.95;;;1.18;91.40
34034;BME280;63481;52.588;22.472;2023-03-20T05:14:42;100131.92;;;1.21;91.38
34034;BME280;63481;52.588;22.472;2023-03-20T05:15:58;100130.84;;;1.25;91.52
34034;BME280;63481;52.588;22.472;2023-03-20T05:17:13;100133.80;;;1.28;91.34
34034;BME280;63481;52.588;22.472;2023-03-20T05:18:41;100132.41;;;1.32;91.27
34034;BME280;63481;52.588;22.472;2023-03-20T05:19:50;100131.04;;;1.35;91.14
34034;BME280;63481;52.588;22.472;2023-03-20T05:20:58;100128.34;;;1.39;91.35
34034;BME280;63481;52.588;22.472;2023-03-20T05:22:17;100126.48;;;1.47;91.02
34034;BME280;63481;52.588;22.472;2023-03-20T05:23:33;100126.83;;;1.56;91.06
34034;BME280;63481;52.588;22.472;2023-03-20T05:24:48;100128.59;;;1.63;90.78
34034;BME280;63481;52.588;22.472;2023-03-20T05:26:02;100129.72;;;1.69;90.79
34034;BME280;63481;52.588;22.472;2023-03-20T05:27:18;100129.34;;;1.73;90.23
34034;BME280;63481;52.588;22.472;2023-03-20T05:28:20;100128.48;;;1.78;89.59
34034;BME280;63481;52.588;22.472;2023-03-20T05:29:31;100133.07;;;1.86;89.33
34034;BME280;63481;52.588;22.472;2023-03-20T05:31:02;100133.18;;;1.94;89.21
34034;BME280;63481;52.588;22.472;2023-03-20T05:32:13;100133.80;;;2.00;88.98
34034;BME280;63481;52.588;22.472;2023-03-20T05:33:20;100133.38;;;2.06;88.94
34034;BME280;63481;52.588;22.472;2023-03-20T05:34:30;100135.66;;;2.14;88.85
34034;BME280;63481;52.588;22.472;2023-03-20T05:35:33;100133.96;;;2.22;88.42
34034;BME280;63481;52.588;22.472;2023-03-20T05:36:51;100133.89;;;2.26;88.17
34034;BME280;63481;52.588;22.472;2023-03-20T05:38:07;100135.52;;;2.30;88.04
34034;BME280;63481;52.588;22.472;2023-03-20T05:39:09;100133.31;;;2.35;88.47
34034;BME280;63481;52.588;22.472;2023-03-20T05:40:17;100134.98;;;2.42;88.29
34034;BME280;63481;52.588;22.472;2023-03-20T05:41:43;100129.66;;;2.57;88.43
34034;BME280;63481;52.588;22.472;2023-03-20T05:42:54;100128.51;;;2.71;88.18
34034;BME280;63481;52.588;22.472;2023-03-20T05:44:19;100125.59;;;2.87;87.70
34034;BME280;63481;52.588;22.472;2023-03-20T05:45:41;100127.91;;;3.00;87.35
34034;BME280;63481;52.588;22.472;2023-03-20T05:46:56;100129.52;;;3.10;86.92
34034;BME280;63481;52.588;22.472;2023-03-20T05:48:19;100126.58;;;3.32;86.44
34034;BME280;63481;52.588;22.472;2023-03-20T05:49:31;100126.10;;;3.53;85.71
34034;BME280;63481;52.588;22.472;2023-03-20T05:50:42;100122.86;;;3.60;85.61
34034;BME280;63481;52.588;22.472;2023-03-20T05:51:46;100124.81;;;3.70;85.49
34034;BME280;63481;52.588;22.472;2023-03-20T05:52:59;100126.00;;;3.80;84.89
34034;BME280;63481;52.588;22.472;2023-03-20T05:54:11;100126.35;;;3.89;84.43
34034;BME280;63481;52.588;22.472;2023-03-20T05:55:35;100117.05;;;3.88;84.69